createdAt,value
2022-11-07T01:24:08.543Z,993.72
2022-11-07T01:29:08.484Z,993.71
2022-11-07T01:34:08.470Z,993.66
2022-11-07T01:39:08.380Z,993.66
2022-11-07T01:44:08.392Z,993.64
2022-11-07T01:49:08.323Z,993.61
2022-11-07T01:54:08.289Z,993.61
2022-11-07T01:59:08.333Z,993.60
2022-11-07T02:04:08.123Z,993.56
2022-11-07T02:09:08.062Z,993.54
2022-11-07T02:14:08.008Z,993.54
2022-11-07T02:19:11.447Z,993.53
2022-11-07T02:24:09.090Z,993.69
2022-11-07T02:29:07.887Z,993.64
2022-11-07T02:34:07.927Z,993.67
2022-11-07T02:39:07.926Z,993.64
2022-11-07T02:44:07.733Z,993.61
2022-11-07T02:49:07.634Z,993.55
2022-11-07T02:54:07.633Z,993.56
2022-11-07T02:59:08.665Z,993.55
2022-11-07T03:04:07.504Z,993.59
2022-11-07T03:09:07.491Z,993.56
2022-11-07T03:14:07.528Z,993.58
2022-11-07T03:19:14.902Z,993.62
2022-11-07T03:24:07.405Z,993.73
2022-11-07T03:29:07.269Z,993.69
2022-11-07T03:34:07.162Z,993.73
2022-11-07T03:39:07.330Z,993.82
2022-11-07T03:44:07.207Z,993.80
2022-11-07T03:49:07.147Z,993.83
2022-11-07T03:54:07.147Z,993.85
2022-11-07T03:59:07.116Z,993.87
2022-11-07T04:04:08.235Z,993.87
2022-11-07T04:09:06.951Z,993.85
2022-11-07T04:14:06.746Z,993.98
2022-11-07T04:19:06.687Z,994.02
2022-11-07T04:24:06.611Z,993.94
2022-11-07T04:29:06.594Z,993.99
2022-11-07T04:34:06.687Z,994.00
2022-11-07T04:39:06.633Z,993.98
2022-11-07T04:44:07.430Z,994.03
2022-11-07T04:49:07.402Z,993.87
2022-11-07T04:54:06.479Z,993.97
2022-11-07T04:59:06.364Z,993.92
2022-11-07T05:04:06.228Z,993.92
2022-11-07T05:09:06.127Z,993.85
2022-11-07T05:14:06.278Z,993.85
2022-11-07T05:19:06.621Z,993.91
2022-11-07T05:24:06.028Z,993.86
2022-11-07T05:29:05.956Z,993.96
2022-11-07T05:34:08.661Z,993.94
2022-11-07T05:39:06.939Z,993.98
2022-11-07T05:44:05.827Z,993.93
2022-11-07T05:49:05.807Z,993.98
2022-11-07T05:54:05.744Z,994.01
2022-11-07T05:59:05.879Z,994.10
2022-11-07T06:04:05.702Z,994.14
2022-11-07T06:09:07.716Z,994.10
2022-11-07T06:14:05.667Z,994.03
2022-11-07T06:19:05.579Z,994.04
2022-11-07T06:24:07.255Z,994.08
2022-11-07T06:29:06.395Z,994.17
2022-11-07T06:34:05.282Z,994.08
2022-11-07T06:39:06.563Z,994.15
2022-11-07T06:44:05.095Z,994.20
2022-11-07T06:49:05.072Z,994.14
2022-11-07T06:54:05.056Z,994.27
2022-11-07T06:59:05.415Z,994.33
2022-11-07T07:04:04.877Z,994.34
2022-11-07T07:09:04.894Z,994.29
2022-11-07T07:14:10.212Z,994.32
2022-11-07T07:19:05.736Z,994.46
2022-11-07T07:24:04.687Z,994.39
2022-11-07T07:29:04.601Z,994.56
2022-11-07T07:34:04.917Z,994.51
2022-11-07T07:39:04.647Z,994.67
2022-11-07T07:44:04.448Z,994.57
2022-11-07T07:49:05.457Z,994.50
2022-11-07T07:54:04.401Z,994.62
2022-11-07T07:59:04.369Z,994.61
2022-11-07T08:04:04.286Z,994.62
2022-11-07T08:09:05.372Z,994.70
2022-11-07T08:14:04.198Z,994.78
2022-11-07T08:19:04.131Z,994.75
2022-11-07T08:24:04.004Z,994.87
2022-11-07T08:29:03.956Z,994.92
2022-11-07T08:34:04.023Z,995.01
2022-11-07T08:39:03.851Z,995.00
2022-11-07T08:44:03.802Z,994.89
2022-11-07T08:49:03.780Z,994.90
2022-11-07T08:54:03.687Z,994.96
2022-11-07T08:59:03.641Z,994.99
2022-11-07T09:04:04.718Z,994.96
2022-11-07T09:09:03.523Z,994.95
2022-11-07T09:14:03.498Z,994.99
2022-11-07T09:19:03.531Z,994.95
2022-11-07T09:24:03.488Z,994.99
2022-11-07T09:29:03.392Z,995.14
2022-11-07T09:34:03.312Z,995.12
2022-11-07T09:39:03.258Z,995.20
2022-11-07T09:44:04.897Z,995.25
2022-11-07T09:49:03.163Z,995.38
2022-11-07T09:54:03.044Z,995.49
2022-11-07T09:59:02.965Z,995.51
2022-11-07T10:04:24.114Z,995.57
2022-11-07T10:09:03.872Z,995.57
2022-11-07T10:14:02.788Z,995.70
2022-11-07T10:19:02.800Z,995.84
2022-11-07T10:24:02.713Z,995.81
2022-11-07T10:29:02.739Z,995.89
2022-11-07T10:34:02.705Z,995.92
2022-11-07T10:39:02.620Z,995.98
2022-11-07T10:44:02.555Z,995.86
2022-11-07T10:49:02.428Z,995.84
2022-11-07T10:54:02.473Z,995.68
2022-11-07T10:59:03.398Z,995.66
2022-11-07T11:04:02.320Z,995.62
2022-11-07T11:09:02.328Z,995.56
2022-11-07T11:14:02.152Z,995.50
2022-11-07T11:19:02.090Z,995.57
2022-11-07T11:24:02.039Z,995.60
2022-11-07T11:29:01.973Z,995.54
2022-11-07T11:34:01.933Z,995.50
2022-11-07T11:39:05.279Z,995.57
2022-11-07T11:44:01.910Z,995.48
2022-11-07T11:49:01.864Z,995.51
2022-11-07T11:54:01.824Z,995.52
2022-11-07T11:59:01.741Z,995.45
2022-11-07T12:04:03.961Z,995.49
2022-11-07T12:09:02.681Z,995.50
2022-11-07T12:14:01.548Z,995.58
2022-11-07T12:19:01.516Z,995.54
2022-11-07T12:24:01.462Z,995.44
2022-11-07T12:29:01.390Z,995.40
2022-11-07T12:34:01.265Z,995.35
2022-11-07T12:39:01.298Z,995.36
2022-11-07T12:44:01.222Z,995.28
2022-11-07T12:49:01.203Z,995.30
2022-11-07T12:54:02.125Z,995.31
2022-11-07T12:59:01.132Z,995.29
2022-11-07T13:04:01.077Z,995.24
2022-11-07T13:09:01.118Z,995.25
2022-11-07T13:14:01.075Z,995.33
2022-11-07T13:19:00.945Z,995.31
2022-11-07T13:24:01.820Z,995.39
2022-11-07T13:29:00.811Z,995.37
2022-11-07T13:34:00.777Z,995.29
2022-11-07T13:39:00.629Z,995.27
2022-11-07T13:44:00.555Z,995.33
2022-11-07T13:49:00.524Z,995.29
2022-11-07T13:54:00.514Z,995.35
2022-11-07T13:59:00.380Z,995.37
2022-11-07T14:04:00.407Z,995.40
2022-11-07T14:09:00.295Z,995.43
2022-11-07T14:14:00.301Z,995.39
2022-11-07T14:19:00.264Z,995.42
2022-11-07T14:24:00.166Z,995.42
2022-11-07T14:29:00.152Z,995.41
2022-11-07T14:34:00.119Z,995.42
2022-11-07T14:38:59.986Z,995.36
2022-11-07T14:44:00.046Z,995.34
2022-11-07T14:49:00.978Z,995.34
2022-11-07T14:54:00.300Z,995.38
2022-11-07T14:59:01.269Z,995.33
2022-11-07T15:03:59.763Z,995.29
2022-11-07T15:08:59.791Z,995.35
2022-11-07T15:13:59.609Z,995.32
2022-11-07T15:18:59.866Z,995.34
2022-11-07T15:23:59.966Z,995.31
2022-11-07T15:29:00.976Z,995.27
2022-11-07T15:33:59.569Z,995.28
2022-11-07T15:39:04.556Z,995.26
2022-11-07T15:44:09.434Z,995.30
2022-11-07T15:49:14.580Z,995.37
2022-11-07T15:54:03.828Z,995.46
2022-11-07T15:58:59.786Z,995.47
2022-11-07T16:04:09.809Z,995.57
2022-11-07T16:08:59.747Z,995.61
2022-11-07T16:14:21.684Z,995.57
2022-11-07T16:19:00.331Z,995.66
2022-11-07T16:23:58.946Z,995.66
2022-11-07T16:28:59.803Z,995.67
2022-11-07T16:33:59.488Z,995.67
2022-11-07T16:38:59.992Z,995.69
2022-11-07T16:44:00.611Z,995.72
2022-11-07T16:48:58.727Z,995.76
2022-11-07T16:54:00.618Z,995.78
2022-11-07T16:58:58.514Z,995.84
2022-11-07T17:04:00.635Z,995.86
2022-11-07T17:09:08.774Z,995.81
2022-11-07T17:14:00.428Z,995.75
2022-11-07T17:19:00.465Z,995.73
2022-11-07T17:23:58.156Z,995.77
2022-11-07T17:28:58.797Z,995.88
2022-11-07T17:33:58.089Z,995.88
2022-11-07T17:38:58.057Z,995.83
2022-11-07T17:43:58.073Z,995.86
2022-11-07T17:48:58.304Z,995.91
2022-11-07T17:53:58.668Z,995.97
2022-11-07T17:59:05.701Z,995.98
2022-11-07T18:03:57.744Z,995.94
2022-11-07T18:08:58.226Z,995.92
2022-11-07T18:13:57.872Z,995.99
2022-11-07T18:18:57.669Z,995.94
2022-11-07T18:23:58.618Z,995.95
2022-11-07T18:28:57.477Z,995.95
2022-11-07T18:33:57.432Z,995.97
2022-11-07T18:38:57.705Z,995.90
2022-11-07T18:44:01.789Z,995.90
2022-11-07T18:48:58.218Z,995.99
2022-11-07T18:53:57.284Z,995.92
2022-11-07T18:58:58.214Z,995.96
2022-11-07T19:03:57.147Z,995.89
2022-11-07T19:08:57.052Z,996.01
2022-11-07T19:13:56.999Z,996.01
2022-11-07T19:18:56.921Z,995.94
2022-11-07T19:23:56.939Z,996.02
2022-11-07T19:29:05.696Z,996.01
2022-11-07T19:33:56.691Z,996.11
2022-11-07T19:38:56.724Z,996.09
2022-11-07T19:43:57.692Z,996.01
2022-11-07T19:48:56.596Z,995.99
2022-11-07T19:53:56.505Z,996.06
2022-11-07T19:58:56.449Z,996.00
2022-11-07T20:03:56.457Z,996.05
2022-11-07T20:08:56.354Z,996.06
2022-11-07T20:14:00.193Z,996.02
2022-11-07T20:18:57.265Z,996.03
2022-11-07T20:23:56.193Z,996.07
2022-11-07T20:28:56.132Z,996.08
2022-11-07T20:33:56.167Z,996.08
2022-11-07T20:38:56.023Z,996.09
2022-11-07T20:43:56.054Z,996.12
2022-11-07T20:48:55.895Z,996.14
2022-11-07T20:53:55.840Z,996.18
2022-11-07T20:58:55.778Z,996.18
2022-11-07T21:03:55.794Z,996.20
2022-11-07T21:08:55.690Z,996.10
2022-11-07T21:13:55.663Z,996.10
2022-11-07T21:18:55.590Z,996.16
2022-11-07T21:23:55.549Z,996.18
2022-11-07T21:28:55.473Z,996.14
2022-11-07T21:33:56.483Z,996.13
2022-11-07T21:38:55.502Z,996.14
2022-11-07T21:43:55.422Z,996.25
2022-11-07T21:48:55.377Z,996.20
2022-11-07T21:53:55.199Z,996.08
2022-11-07T21:58:55.137Z,996.10
2022-11-07T22:04:11.830Z,996.03
2022-11-07T22:08:56.130Z,996.08
2022-11-07T22:13:55.119Z,996.05
2022-11-07T22:18:54.997Z,996.06
2022-11-07T22:23:55.042Z,996.01
2022-11-07T22:28:54.966Z,995.94
2022-11-07T22:33:54.768Z,995.86
2022-11-07T22:38:54.718Z,995.85
2022-11-07T22:43:54.657Z,995.82
2022-11-07T22:48:54.655Z,995.76
2022-11-07T22:53:58.757Z,995.74
2022-11-07T22:58:54.649Z,995.77
2022-11-07T23:03:54.581Z,995.68
2022-11-07T23:08:54.412Z,995.65
2022-11-07T23:13:54.323Z,995.75
2022-11-07T23:18:54.400Z,995.72
2022-11-07T23:23:54.218Z,995.68
2022-11-07T23:28:55.173Z,995.65
2022-11-07T23:33:54.188Z,995.63
2022-11-07T23:38:54.146Z,995.61
2022-11-07T23:43:54.062Z,995.52
2022-11-07T23:48:53.947Z,995.42
2022-11-07T23:53:53.898Z,995.43
2022-11-07T23:58:53.902Z,995.47
